sensor_id;sensor_type;location;lat;lon;timestamp;pressure;altitude;pressure_sealevel;temperature
69530;BMP180;56727;47.188;8.840;2023-10-19T00:00:42;95617.40;;;18.66
69530;BMP180;56727;47.188;8.840;2023-10-19T00:03:32;95612.60;;;19.16
69530;BMP180;56727;47.188;8.840;2023-10-19T00:05:59;95600.60;;;18.58
69530;BMP180;56727;47.188;8.840;2023-10-19T00:08:26;95594.00;;;18.00
69530;BMP180;56727;47.188;8.840;2023-10-19T00:11:02;95586.00;;;17.80
69530;BMP180;56727;47.188;8.840;2023-10-19T00:13:31;95580.40;;;17.70
69530;BMP180;56727;47.188;8.840;2023-10-19T00:15:58;95571.20;;;17.60
69530;BMP180;56727;47.188;8.840;2023-10-19T00:18:25;95570.60;;;17.50
69530;BMP180;56727;47.188;8.840;2023-10-19T00:20:54;95584.60;;;17.40
69530;BMP180;56727;47.188;8.840;2023-10-19T00:23:46;95574.00;;;17.62
69530;BMP180;56727;47.188;8.840;2023-10-19T00:26:16;95564.40;;;17.80
69530;BMP180;56727;47.188;8.840;2023-10-19T00:28:47;95561.40;;;18.36
69530;BMP180;56727;47.188;8.840;2023-10-19T00:31:19;95554.20;;;18.70
69530;BMP180;56727;47.188;8.840;2023-10-19T00:33:49;95543.40;;;18.88
69530;BMP180;56727;47.188;8.840;2023-10-19T00:36:18;95528.80;;;18.98
69530;BMP180;56727;47.188;8.840;2023-10-19T00:38:47;95524.80;;;19.10
69530;BMP180;56727;47.188;8.840;2023-10-19T00:41:25;95532.40;;;19.14
69530;BMP180;56727;47.188;8.840;2023-10-19T00:44:00;95537.40;;;19.28
69530;BMP180;56727;47.188;8.840;2023-10-19T00:46:31;95534.00;;;19.30
69530;BMP180;56727;47.188;8.840;2023-10-19T00:49:02;95534.60;;;19.36
69530;BMP180;56727;47.188;8.840;2023-10-19T00:51:42;95549.20;;;19.40
69530;BMP180;56727;47.188;8.840;2023-10-19T00:54:32;95532.80;;;19.48
69530;BMP180;56727;47.188;8.840;2023-10-19T00:57:01;95526.60;;;19.50
69530;BMP180;56727;47.188;8.840;2023-10-19T00:59:38;95524.40;;;18.70
69530;BMP180;56727;47.188;8.840;2023-10-19T01:02:09;95515.00;;;18.40
69530;BMP180;56727;47.188;8.840;2023-10-19T01:04:50;95520.80;;;18.18
69530;BMP180;56727;47.188;8.840;2023-10-19T01:07:31;95516.20;;;18.00
69530;BMP180;56727;47.188;8.840;2023-10-19T01:10:02;95508.60;;;17.98
69530;BMP180;56727;47.188;8.840;2023-10-19T01:12:32;95518.40;;;18.70
69530;BMP180;56727;47.188;8.840;2023-10-19T01:15:25;95521.20;;;19.04
69530;BMP180;56727;47.188;8.840;2023-10-19T01:17:57;95519.80;;;18.72
69530;BMP180;56727;47.188;8.840;2023-10-19T01:20:27;95520.40;;;18.20
69530;BMP180;56727;47.188;8.840;2023-10-19T01:23:03;95526.20;;;18.86
69530;BMP180;56727;47.188;8.840;2023-10-19T01:25:50;95518.20;;;19.26
69530;BMP180;56727;47.188;8.840;2023-10-19T01:28:31;95527.60;;;18.70
69530;BMP180;56727;47.188;8.840;2023-10-19T01:31:20;95515.40;;;18.30
69530;BMP180;56727;47.188;8.840;2023-10-19T01:33:58;95520.80;;;18.10
69530;BMP180;56727;47.188;8.840;2023-10-19T01:36:25;95511.20;;;18.00
69530;BMP180;56727;47.188;8.840;2023-10-19T01:38:55;95506.80;;;17.80
69530;BMP180;56727;47.188;8.840;2023-10-19T01:41:23;95504.40;;;17.70
69530;BMP180;56727;47.188;8.840;2023-10-19T01:43:52;95496.80;;;17.60
69530;BMP180;56727;47.188;8.840;2023-10-19T01:46:22;95500.60;;;17.54
69530;BMP180;56727;47.188;8.840;2023-10-19T01:48:54;95502.40;;;18.56
69530;BMP180;56727;47.188;8.840;2023-10-19T01:51:25;95504.00;;;19.04
69530;BMP180;56727;47.188;8.840;2023-10-19T01:53:58;95501.60;;;19.22
69530;BMP180;56727;47.188;8.840;2023-10-19T01:56:25;95502.80;;;19.30
69530;BMP180;56727;47.188;8.840;2023-10-19T01:58:52;95503.00;;;19.34
69530;BMP180;56727;47.188;8.840;2023-10-19T02:01:20;95504.40;;;19.42
69530;BMP180;56727;47.188;8.840;2023-10-19T02:03:58;95511.40;;;19.50
69530;BMP180;56727;47.188;8.840;2023-10-19T02:06:27;95506.00;;;19.58
69530;BMP180;56727;47.188;8.840;2023-10-19T02:08:59;95494.20;;;19.64
69530;BMP180;56727;47.188;8.840;2023-10-19T02:11:46;95491.40;;;19.70
69530;BMP180;56727;47.188;8.840;2023-10-19T02:14:15;95488.40;;;19.70
69530;BMP180;56727;47.188;8.840;2023-10-19T02:16:51;95485.80;;;19.70
69530;BMP180;56727;47.188;8.840;2023-10-19T02:19:20;95481.40;;;19.72
69530;BMP180;56727;47.188;8.840;2023-10-19T02:21:58;95481.00;;;19.74
69530;BMP180;56727;47.188;8.840;2023-10-19T02:24:26;95480.20;;;19.76
69530;BMP180;56727;47.188;8.840;2023-10-19T02:26:55;95478.20;;;19.74
69530;BMP180;56727;47.188;8.840;2023-10-19T02:29:23;95480.40;;;19.74
69530;BMP180;56727;47.188;8.840;2023-10-19T02:31:49;95472.20;;;19.70
69530;BMP180;56727;47.188;8.840;2023-10-19T02:34:16;95456.40;;;19.70
69530;BMP180;56727;47.188;8.840;2023-10-19T02:36:45;95460.20;;;19.70
69530;BMP180;56727;47.188;8.840;2023-10-19T02:39:13;95463.80;;;19.70
69530;BMP180;56727;47.188;8.840;2023-10-19T02:41:43;95467.40;;;19.70
69530;BMP180;56727;47.188;8.840;2023-10-19T02:44:14;95465.60;;;19.76
69530;BMP180;56727;47.188;8.840;2023-10-19T02:46:52;95464.80;;;19.68
69530;BMP180;56727;47.188;8.840;2023-10-19T02:49:21;95469.00;;;19.00
69530;BMP180;56727;47.188;8.840;2023-10-19T02:51:50;95464.00;;;19.42
69530;BMP180;56727;47.188;8.840;2023-10-19T02:54:21;95469.40;;;19.62
69530;BMP180;56727;47.188;8.840;2023-10-19T02:56:54;95465.60;;;19.30
69530;BMP180;56727;47.188;8.840;2023-10-19T02:59:24;95453.00;;;19.48
69530;BMP180;56727;47.188;8.840;2023-10-19T03:01:58;95454.60;;;19.60
69530;BMP180;56727;47.188;8.840;2023-10-19T03:04:33;95456.20;;;19.64
69530;BMP180;56727;47.188;8.840;2023-10-19T03:07:06;95463.00;;;19.60
69530;BMP180;56727;47.188;8.840;2023-10-19T03:09:34;95462.40;;;18.90
69530;BMP180;56727;47.188;8.840;2023-10-19T03:12:04;95463.40;;;18.24
69530;BMP180;56727;47.188;8.840;2023-10-19T03:14:32;95454.00;;;18.88
69530;BMP180;56727;47.188;8.840;2023-10-19T03:16:59;95450.00;;;19.22
69530;BMP180;56727;47.188;8.840;2023-10-19T03:19:26;95451.40;;;19.34
69530;BMP180;56727;47.188;8.840;2023-10-19T03:21:53;95441.20;;;19.40
69530;BMP180;56727;47.188;8.840;2023-10-19T03:24:21;95442.00;;;19.50
69530;BMP180;56727;47.188;8.840;2023-10-19T03:27:09;95447.20;;;19.52
69530;BMP180;56727;47.188;8.840;2023-10-19T03:29:49;95443.80;;;19.54
69530;BMP180;56727;47.188;8.840;2023-10-19T03:32:25;95442.80;;;19.50
69530;BMP180;56727;47.188;8.840;2023-10-19T03:34:58;95439.00;;;19.52
69530;BMP180;56727;47.188;8.840;2023-10-19T03:37:27;95442.80;;;19.50
69530;BMP180;56727;47.188;8.840;2023-10-19T03:39:56;95440.60;;;19.50
69530;BMP180;56727;47.188;8.840;2023-10-19T03:42:24;95438.60;;;19.50
69530;BMP180;56727;47.188;8.840;2023-10-19T03:44:59;95437.20;;;19.50
69530;BMP180;56727;47.188;8.840;2023-10-19T03:47:28;95439.00;;;19.42
69530;BMP180;56727;47.188;8.840;2023-10-19T03:50:02;95437.80;;;18.64
69530;BMP180;56727;47.188;8.840;2023-10-19T03:52:41;95438.20;;;17.96
69530;BMP180;56727;47.188;8.840;2023-10-19T03:55:08;95444.00;;;17.70
69530;BMP180;56727;47.188;8.840;2023-10-19T03:57:39;95442.20;;;17.60
69530;BMP180;56727;47.188;8.840;2023-10-19T04:00:14;95435.40;;;17.56
69530;BMP180;56727;47.188;8.840;2023-10-19T04:02:52;95430.80;;;17.64
69530;BMP180;56727;47.188;8.840;2023-10-19T04:05:19;95424.20;;;18.60
69530;BMP180;56727;47.188;8.840;2023-10-19T04:07:49;95424.00;;;18.36
69530;BMP180;56727;47.188;8.840;2023-10-19T04:10:24;95426.60;;;17.84
69530;BMP180;56727;47.188;8.840;2023-10-19T04:12:58;95421.00;;;17.62
69530;BMP180;56727;47.188;8.840;2023-10-19T04:15:29;95427.40;;;17.50
69530;BMP180;56727;47.188;8.840;2023-10-19T04:17:57;95422.20;;;17.44
69530;BMP180;56727;47.188;8.840;2023-10-19T04:20:26;95418.40;;;17.60
69530;BMP180;56727;47.188;8.840;2023-10-19T04:23:01;95414.20;;;17.60
69530;BMP180;56727;47.188;8.840;2023-10-19T04:25:37;95407.20;;;17.58
69530;BMP180;56727;47.188;8.840;2023-10-19T04:28:03;95403.60;;;17.56
69530;BMP180;56727;47.188;8.840;2023-10-19T04:30:31;95398.60;;;17.46
69530;BMP180;56727;47.188;8.840;2023-10-19T04:32:59;95396.60;;;17.40
69530;BMP180;56727;47.188;8.840;2023-10-19T04:35:28;95388.00;;;17.50
69530;BMP180;56727;47.188;8.840;2023-10-19T04:38:00;95391.80;;;17.46
69530;BMP180;56727;47.188;8.840;2023-10-19T04:40:27;95393.20;;;17.40
69530;BMP180;56727;47.188;8.840;2023-10-19T04:42:54;95392.40;;;17.40
69530;BMP180;56727;47.188;8.840;2023-10-19T04:45:21;95386.60;;;17.40
69530;BMP180;56727;47.188;8.840;2023-10-19T04:47:51;95381.00;;;17.42
69530;BMP180;56727;47.188;8.840;2023-10-19T04:50:21;95379.20;;;17.40
69530;BMP180;56727;47.188;8.840;2023-10-19T04:52:48;95373.20;;;17.40
69530;BMP180;56727;47.188;8.840;2023-10-19T04:55:14;95366.40;;;17.30
69530;BMP180;56727;47.188;8.840;2023-10-19T04:57:41;95364.80;;;17.34
69530;BMP180;56727;47.188;8.840;2023-10-19T05:00:09;95361.20;;;17.30
69530;BMP180;56727;47.188;8.840;2023-10-19T05:02:39;95365.20;;;17.38
69530;BMP180;56727;47.188;8.840;2023-10-19T05:05:06;95357.80;;;17.36
69530;BMP180;56727;47.188;8.840;2023-10-19T05:07:33;95355.80;;;17.32
69530;BMP180;56727;47.188;8.840;2023-10-19T05:09:59;95352.60;;;17.36
69530;BMP180;56727;47.188;8.840;2023-10-19T05:12:26;95352.80;;;17.40
69530;BMP180;56727;47.188;8.840;2023-10-19T05:14:52;95353.60;;;17.40
69530;BMP180;56727;47.188;8.840;2023-10-19T05:17:19;95346.00;;;17.44
69530;BMP180;56727;47.188;8.840;2023-10-19T05:19:47;95346.20;;;17.56
69530;BMP180;56727;47.188;8.840;2023-10-19T05:22:14;95343.20;;;17.60
69530;BMP180;56727;47.188;8.840;2023-10-19T05:24:40;95336.40;;;17.58
69530;BMP180;56727;47.188;8.840;2023-10-19T05:27:07;95336.40;;;17.50
69530;BMP180;56727;47.188;8.840;2023-10-19T05:29:36;95335.80;;;17.50
69530;BMP180;56727;47.188;8.840;2023-10-19T05:32:02;95331.80;;;17.50
69530;BMP180;56727;47.188;8.840;2023-10-19T05:34:30;95327.20;;;17.50
69530;BMP180;56727;47.188;8.840;2023-10-19T05:36:58;95321.00;;;17.48
69530;BMP180;56727;47.188;8.840;2023-10-19T05:39:29;95310.20;;;17.50
69530;BMP180;56727;47.188;8.840;2023-10-19T05:41:57;95297.00;;;18.34
69530;BMP180;56727;47.188;8.840;2023-10-19T05:44:29;95286.60;;;18.70
69530;BMP180;56727;47.188;8.840;2023-10-19T05:46:57;95286.00;;;18.10
69530;BMP180;56727;47.188;8.840;2023-10-19T05:49:24;95283.20;;;17.80
69530;BMP180;56727;47.188;8.840;2023-10-19T05:51:51;95280.00;;;17.70
69530;BMP180;56727;47.188;8.840;2023-10-19T05:54:18;95283.80;;;17.66
69530;BMP180;56727;47.188;8.840;2023-10-19T05:56:45;95277.60;;;17.70
69530;BMP180;56727;47.188;8.840;2023-10-19T05:59:12;95278.00;;;17.70
69530;BMP180;56727;47.188;8.840;2023-10-19T06:01:39;95280.20;;;17.70
69530;BMP180;56727;47.188;8.840;2023-10-19T06:04:07;95283.00;;;17.76
69530;BMP180;56727;47.188;8.840;2023-10-19T06:06:34;95286.00;;;17.70
69530;BMP180;56727;47.188;8.840;2023-10-19T06:09:02;95279.00;;;17.72
69530;BMP180;56727;47.188;8.840;2023-10-19T06:11:31;95281.40;;;17.70
69530;BMP180;56727;47.188;8.840;2023-10-19T06:13:59;95275.40;;;17.74
69530;BMP180;56727;47.188;8.840;2023-10-19T06:16:26;95272.60;;;17.76
69530;BMP180;56727;47.188;8.840;2023-10-19T06:18:54;95265.00;;;17.80
69530;BMP180;56727;47.188;8.840;2023-10-19T06:21:21;95268.40;;;17.80
69530;BMP180;56727;47.188;8.840;2023-10-19T06:23:47;95270.60;;;17.80
69530;BMP180;56727;47.188;8.840;2023-10-19T06:26:14;95274.40;;;17.80
69530;BMP180;56727;47.188;8.840;2023-10-19T06:28:41;95266.40;;;17.80
69530;BMP180;56727;47.188;8.840;2023-10-19T06:31:08;95256.40;;;17.70
69530;BMP180;56727;47.188;8.840;2023-10-19T06:33:35;95263.60;;;17.60
69530;BMP180;56727;47.188;8.840;2023-10-19T06:36:03;95265.00;;;17.60
69530;BMP180;56727;47.188;8.840;2023-10-19T06:38:30;95260.60;;;17.62
69530;BMP180;56727;47.188;8.840;2023-10-19T06:41:00;95259.80;;;17.80
69530;BMP180;56727;47.188;8.840;2023-10-19T06:43:29;95264.40;;;17.76
69530;BMP180;56727;47.188;8.840;2023-10-19T06:45:57;95258.20;;;17.70
69530;BMP180;56727;47.188;8.840;2023-10-19T06:48:23;95251.00;;;17.70
69530;BMP180;56727;47.188;8.840;2023-10-19T06:50:50;95250.00;;;17.70
69530;BMP180;56727;47.188;8.840;2023-10-19T06:53:17;95251.60;;;17.68
69530;BMP180;56727;47.188;8.840;2023-10-19T06:55:43;95252.40;;;17.66
69530;BMP180;56727;47.188;8.840;2023-10-19T06:58:10;95252.00;;;17.64
69530;BMP180;56727;47.188;8.840;2023-10-19T07:00:38;95248.40;;;17.66
69530;BMP180;56727;47.188;8.840;2023-10-19T07:03:09;95248.80;;;17.70
69530;BMP180;56727;47.188;8.840;2023-10-19T07:05:37;95247.60;;;17.76
69530;BMP180;56727;47.188;8.840;2023-10-19T07:08:05;95248.60;;;17.80
69530;BMP180;56727;47.188;8.840;2023-10-19T07:10:33;95250.00;;;17.84
69530;BMP180;56727;47.188;8.840;2023-10-19T07:13:01;95256.20;;;18.86
69530;BMP180;56727;47.188;8.840;2023-10-19T07:15:28;95243.80;;;19.40
69530;BMP180;56727;47.188;8.840;2023-10-19T07:17:56;95249.40;;;19.64
69530;BMP180;56727;47.188;8.840;2023-10-19T07:20:22;95251.80;;;19.46
69530;BMP180;56727;47.188;8.840;2023-10-19T07:22:55;95250.00;;;18.68
69530;BMP180;56727;47.188;8.840;2023-10-19T07:25:23;95251.00;;;18.38
69530;BMP180;56727;47.188;8.840;2023-10-19T07:27:53;95248.00;;;19.24
69530;BMP180;56727;47.188;8.840;2023-10-19T07:30:20;95246.40;;;19.72
69530;BMP180;56727;47.188;8.840;2023-10-19T07:32:49;95247.60;;;19.96
69530;BMP180;56727;47.188;8.840;2023-10-19T07:35:26;95246.40;;;20.10
69530;BMP180;56727;47.188;8.840;2023-10-19T07:37:54;95247.40;;;20.26
69530;BMP180;56727;47.188;8.840;2023-10-19T07:40:23;95236.20;;;20.40
69530;BMP180;56727;47.188;8.840;2023-10-19T07:42:51;95230.40;;;20.50
69530;BMP180;56727;47.188;8.840;2023-10-19T07:45:19;95220.20;;;20.60
69530;BMP180;56727;47.188;8.840;2023-10-19T07:47:46;95221.20;;;20.70
69530;BMP180;56727;47.188;8.840;2023-10-19T07:50:14;95216.60;;;20.70
69530;BMP180;56727;47.188;8.840;2023-10-19T07:52:45;95209.20;;;20.76
69530;BMP180;56727;47.188;8.840;2023-10-19T07:55:14;95208.40;;;20.80
69530;BMP180;56727;47.188;8.840;2023-10-19T07:57:43;95211.40;;;20.78
69530;BMP180;56727;47.188;8.840;2023-10-19T08:00:11;95215.00;;;20.80
69530;BMP180;56727;47.188;8.840;2023-10-19T08:02:40;95216.80;;;20.88
69530;BMP180;56727;47.188;8.840;2023-10-19T08:05:08;95209.20;;;20.90
69530;BMP180;56727;47.188;8.840;2023-10-19T08:07:39;95209.20;;;21.00
69530;BMP180;56727;47.188;8.840;2023-10-19T08:10:07;95203.40;;;21.10
69530;BMP180;56727;47.188;8.840;2023-10-19T08:12:37;95195.60;;;21.10
69530;BMP180;56727;47.188;8.840;2023-10-19T08:15:04;95192.80;;;21.18
69530;BMP180;56727;47.188;8.840;2023-10-19T08:17:33;95188.80;;;21.28
69530;BMP180;56727;47.188;8.840;2023-10-19T08:20:00;95185.20;;;21.32
69530;BMP180;56727;47.188;8.840;2023-10-19T08:22:29;95185.60;;;21.46
69530;BMP180;56727;47.188;8.840;2023-10-19T08:24:57;95186.00;;;21.56
69530;BMP180;56727;47.188;8.840;2023-10-19T08:27:23;95187.00;;;21.60
69530;BMP180;56727;47.188;8.840;2023-10-19T08:29:50;95182.40;;;21.70
69530;BMP180;56727;47.188;8.840;2023-10-19T08:32:17;95180.20;;;21.12
69530;BMP180;56727;47.188;8.840;2023-10-19T08:34:43;95171.40;;;20.70
69530;BMP180;56727;47.188;8.840;2023-10-19T08:37:10;95178.40;;;20.50
69530;BMP180;56727;47.188;8.840;2023-10-19T08:39:37;95180.00;;;20.38
69530;BMP180;56727;47.188;8.840;2023-10-19T08:42:05;95181.60;;;20.30
69530;BMP180;56727;47.188;8.840;2023-10-19T08:44:32;95182.60;;;20.28
69530;BMP180;56727;47.188;8.840;2023-10-19T08:46:59;95176.20;;;21.04
69530;BMP180;56727;47.188;8.840;2023-10-19T08:49:25;95171.80;;;21.48
69530;BMP180;56727;47.188;8.840;2023-10-19T08:51:59;95177.00;;;21.66
69530;BMP180;56727;47.188;8.840;2023-10-19T08:54:26;95181.00;;;20.90
69530;BMP180;56727;47.188;8.840;2023-10-19T08:56:53;95177.00;;;20.60
69530;BMP180;56727;47.188;8.840;2023-10-19T08:59:22;95180.20;;;20.58
69530;BMP180;56727;47.188;8.840;2023-10-19T09:01:49;95184.20;;;20.80
69530;BMP180;56727;47.188;8.840;2023-10-19T09:04:16;95182.60;;;20.90
69530;BMP180;56727;47.188;8.840;2023-10-19T09:06:45;95177.40;;;20.90
69530;BMP180;56727;47.188;8.840;2023-10-19T09:09:12;95170.00;;;20.88
69530;BMP180;56727;47.188;8.840;2023-10-19T09:11:47;95166.00;;;20.94
69530;BMP180;56727;47.188;8.840;2023-10-19T09:14:31;95160.20;;;21.00
69530;BMP180;56727;47.188;8.840;2023-10-19T09:17:09;95154.20;;;21.24
69530;BMP180;56727;47.188;8.840;2023-10-19T09:19:42;95161.60;;;21.24
69530;BMP180;56727;47.188;8.840;2023-10-19T09:22:10;95159.20;;;21.30
69530;BMP180;56727;47.188;8.840;2023-10-19T09:24:45;95153.40;;;22.16
69530;BMP180;56727;47.188;8.840;2023-10-19T09:27:13;95147.80;;;22.56
69530;BMP180;56727;47.188;8.840;2023-10-19T09:29:43;95138.80;;;22.78
69530;BMP180;56727;47.188;8.840;2023-10-19T09:32:10;95136.00;;;22.90
69530;BMP180;56727;47.188;8.840;2023-10-19T09:34:40;95142.60;;;23.00
69530;BMP180;56727;47.188;8.840;2023-10-19T09:37:11;95135.20;;;23.10
69530;BMP180;56727;47.188;8.840;2023-10-19T09:39:38;95131.00;;;23.20
69530;BMP180;56727;47.188;8.840;2023-10-19T09:42:08;95124.40;;;23.28
69530;BMP180;56727;47.188;8.840;2023-10-19T09:44:43;95119.20;;;23.36
69530;BMP180;56727;47.188;8.840;2023-10-19T09:47:38;95111.80;;;23.46
69530;BMP180;56727;47.188;8.840;2023-10-19T09:50:06;95108.80;;;23.60
69530;BMP180;56727;47.188;8.840;2023-10-19T09:52:34;95104.20;;;23.60
69530;BMP180;56727;47.188;8.840;2023-10-19T09:55:33;95094.40;;;23.66
69530;BMP180;56727;47.188;8.840;2023-10-19T09:58:15;95095.80;;;23.80
69530;BMP180;56727;47.188;8.840;2023-10-19T10:00:48;95093.40;;;23.80
69530;BMP180;56727;47.188;8.840;2023-10-19T10:03:50;95091.60;;;23.80
69530;BMP180;56727;47.188;8.840;2023-10-19T10:07:11;95087.00;;;23.80
69530;BMP180;56727;47.188;8.840;2023-10-19T10:09:40;95091.00;;;23.20
69530;BMP180;56727;47.188;8.840;2023-10-19T10:12:22;95085.40;;;22.60
69530;BMP180;56727;47.188;8.840;2023-10-19T10:15:04;95083.20;;;22.24
69530;BMP180;56727;47.188;8.840;2023-10-19T10:17:36;95077.40;;;23.18
69530;BMP180;56727;47.188;8.840;2023-10-19T10:20:33;95076.20;;;23.26
69530;BMP180;56727;47.188;8.840;2023-10-19T10:23:33;95075.20;;;22.74
69530;BMP180;56727;47.188;8.840;2023-10-19T10:26:00;95076.20;;;23.44
69530;BMP180;56727;47.188;8.840;2023-10-19T10:28:27;95068.40;;;23.60
69530;BMP180;56727;47.188;8.840;2023-10-19T10:33:55;95066.00;;;23.82
69530;BMP180;56727;47.188;8.840;2023-10-19T10:36:22;95059.60;;;23.82
69530;BMP180;56727;47.188;8.840;2023-10-19T10:38:50;95051.40;;;23.80
69530;BMP180;56727;47.188;8.840;2023-10-19T10:41:25;95043.80;;;23.80
69530;BMP180;56727;47.188;8.840;2023-10-19T10:43:57;95041.00;;;23.90
69530;BMP180;56727;47.188;8.840;2023-10-19T10:46:27;95047.80;;;23.94
69530;BMP180;56727;47.188;8.840;2023-10-19T10:48:55;95052.20;;;23.98
69530;BMP180;56727;47.188;8.840;2023-10-19T10:51:27;95048.40;;;24.00
69530;BMP180;56727;47.188;8.840;2023-10-19T10:53:57;95050.60;;;24.08
69530;BMP180;56727;47.188;8.840;2023-10-19T10:56:24;95053.00;;;24.04
69530;BMP180;56727;47.188;8.840;2023-10-19T10:58:51;95048.60;;;24.02
69530;BMP180;56727;47.188;8.840;2023-10-19T11:01:31;95049.60;;;24.04
69530;BMP180;56727;47.188;8.840;2023-10-19T11:04:07;95048.60;;;24.08
69530;BMP180;56727;47.188;8.840;2023-10-19T11:06:47;95040.20;;;24.10
69530;BMP180;56727;47.188;8.840;2023-10-19T11:09:15;95032.00;;;24.10
69530;BMP180;56727;47.188;8.840;2023-10-19T11:11:45;95032.60;;;24.08
69530;BMP180;56727;47.188;8.840;2023-10-19T11:14:12;95032.00;;;24.10
69530;BMP180;56727;47.188;8.840;2023-10-19T11:16:39;95026.80;;;24.10
69530;BMP180;56727;47.188;8.840;2023-10-19T11:19:06;95020.00;;;24.20
69530;BMP180;56727;47.188;8.840;2023-10-19T11:21:33;95013.60;;;24.26
69530;BMP180;56727;47.188;8.840;2023-10-19T11:24:00;95016.00;;;24.30
69530;BMP180;56727;47.188;8.840;2023-10-19T11:26:27;95016.20;;;24.34
69530;BMP180;56727;47.188;8.840;2023-10-19T11:29:01;95023.40;;;24.40
69530;BMP180;56727;47.188;8.840;2023-10-19T11:31:30;95015.20;;;24.50
69530;BMP180;56727;47.188;8.840;2023-10-19T11:34:06;95010.20;;;24.60
69530;BMP180;56727;47.188;8.840;2023-10-19T11:36:33;95009.40;;;24.62
69530;BMP180;56727;47.188;8.840;2023-10-19T11:39:00;95013.00;;;24.70
69530;BMP180;56727;47.188;8.840;2023-10-19T11:41:27;95011.80;;;24.80
69530;BMP180;56727;47.188;8.840;2023-10-19T11:43:54;95010.60;;;24.86
69530;BMP180;56727;47.188;8.840;2023-10-19T11:46:20;94996.80;;;24.94
69530;BMP180;56727;47.188;8.840;2023-10-19T11:48:51;95000.00;;;25.00
69530;BMP180;56727;47.188;8.840;2023-10-19T11:51:18;95004.00;;;25.04
69530;BMP180;56727;47.188;8.840;2023-10-19T11:53:44;95006.60;;;25.02
69530;BMP180;56727;47.188;8.840;2023-10-19T11:56:12;95010.80;;;25.10
69530;BMP180;56727;47.188;8.840;2023-10-19T11:58:39;95010.80;;;25.16
69530;BMP180;56727;47.188;8.840;2023-10-19T12:01:11;95004.40;;;25.28
69530;BMP180;56727;47.188;8.840;2023-10-19T12:03:43;94999.80;;;25.42
69530;BMP180;56727;47.188;8.840;2023-10-19T12:06:12;94995.00;;;25.52
69530;BMP180;56727;47.188;8.840;2023-10-19T12:08:46;94994.00;;;25.60
69530;BMP180;56727;47.188;8.840;2023-10-19T12:11:13;94994.80;;;25.56
69530;BMP180;56727;47.188;8.840;2023-10-19T12:13:43;94992.40;;;24.62
69530;BMP180;56727;47.188;8.840;2023-10-19T12:16:11;94985.80;;;24.22
69530;BMP180;56727;47.188;8.840;2023-10-19T12:18:39;94981.80;;;24.98
69530;BMP180;56727;47.188;8.840;2023-10-19T12:21:06;94983.20;;;25.34
69530;BMP180;56727;47.188;8.840;2023-10-19T12:23:42;94981.80;;;25.40
69530;BMP180;56727;47.188;8.840;2023-10-19T12:26:10;94978.40;;;24.54
69530;BMP180;56727;47.188;8.840;2023-10-19T12:28:38;94977.20;;;25.10
69530;BMP180;56727;47.188;8.840;2023-10-19T12:31:05;94974.00;;;25.44
69530;BMP180;56727;47.188;8.840;2023-10-19T12:33:31;94968.20;;;25.58
69530;BMP180;56727;47.188;8.840;2023-10-19T12:35:58;94966.40;;;25.60
69530;BMP180;56727;47.188;8.840;2023-10-19T12:38:25;94966.20;;;25.60
69530;BMP180;56727;47.188;8.840;2023-10-19T12:40:52;94961.80;;;25.16
69530;BMP180;56727;47.188;8.840;2023-10-19T12:43:18;94961.80;;;24.30
69530;BMP180;56727;47.188;8.840;2023-10-19T12:45:45;94963.80;;;23.90
69530;BMP180;56727;47.188;8.840;2023-10-19T12:48:17;94967.80;;;23.70
69530;BMP180;56727;47.188;8.840;2023-10-19T12:50:43;94967.20;;;23.52
69530;BMP180;56727;47.188;8.840;2023-10-19T12:53:10;94973.00;;;23.40
69530;BMP180;56727;47.188;8.840;2023-10-19T12:55:37;94965.20;;;23.40
69530;BMP180;56727;47.188;8.840;2023-10-19T12:58:04;94960.60;;;23.40
69530;BMP180;56727;47.188;8.840;2023-10-19T13:00:36;94959.20;;;23.36
69530;BMP180;56727;47.188;8.840;2023-10-19T13:03:04;94967.20;;;23.42
69530;BMP180;56727;47.188;8.840;2023-10-19T13:05:37;94962.00;;;24.34
69530;BMP180;56727;47.188;8.840;2023-10-19T13:08:09;94951.00;;;24.86
69530;BMP180;56727;47.188;8.840;2023-10-19T13:10:36;94939.80;;;25.12
69530;BMP180;56727;47.188;8.840;2023-10-19T13:13:09;94942.40;;;25.30
69530;BMP180;56727;47.188;8.840;2023-10-19T13:15:42;94941.20;;;25.40
69530;BMP180;56727;47.188;8.840;2023-10-19T13:18:10;94932.80;;;25.50
69530;BMP180;56727;47.188;8.840;2023-10-19T13:20:37;94929.40;;;25.50
69530;BMP180;56727;47.188;8.840;2023-10-19T13:23:08;94927.60;;;25.50
69530;BMP180;56727;47.188;8.840;2023-10-19T13:25:39;94915.40;;;25.52
69530;BMP180;56727;47.188;8.840;2023-10-19T13:28:14;94906.20;;;25.60
69530;BMP180;56727;47.188;8.840;2023-10-19T13:30:52;94904.40;;;25.60
69530;BMP180;56727;47.188;8.840;2023-10-19T13:33:22;94900.80;;;25.70
69530;BMP180;56727;47.188;8.840;2023-10-19T13:35:50;94899.00;;;25.70
69530;BMP180;56727;47.188;8.840;2023-10-19T13:38:18;94891.20;;;25.70
69530;BMP180;56727;47.188;8.840;2023-10-19T13:40:48;94887.40;;;25.76
69530;BMP180;56727;47.188;8.840;2023-10-19T13:43:17;94885.20;;;25.78
69530;BMP180;56727;47.188;8.840;2023-10-19T13:45:47;94888.20;;;25.78
69530;BMP180;56727;47.188;8.840;2023-10-19T13:48:14;94880.40;;;25.70
69530;BMP180;56727;47.188;8.840;2023-10-19T13:50:49;94876.20;;;25.70
69530;BMP180;56727;47.188;8.840;2023-10-19T13:53:18;94873.80;;;25.76
69530;BMP180;56727;47.188;8.840;2023-10-19T13:55:45;94875.00;;;25.80
69530;BMP180;56727;47.188;8.840;2023-10-19T13:58:12;94879.80;;;24.90
69530;BMP180;56727;47.188;8.840;2023-10-19T14:00:43;94875.80;;;25.36
69530;BMP180;56727;47.188;8.840;2023-10-19T14:03:12;94859.00;;;25.68
69530;BMP180;56727;47.188;8.840;2023-10-19T14:05:45;94854.60;;;25.80
69530;BMP180;56727;47.188;8.840;2023-10-19T14:08:16;94851.60;;;25.84
69530;BMP180;56727;47.188;8.840;2023-10-19T14:10:44;94840.80;;;25.84
69530;BMP180;56727;47.188;8.840;2023-10-19T14:13:11;94838.80;;;25.82
69530;BMP180;56727;47.188;8.840;2023-10-19T14:15:38;94835.60;;;25.82
69530;BMP180;56727;47.188;8.840;2023-10-19T14:18:05;94837.00;;;25.80
69530;BMP180;56727;47.188;8.840;2023-10-19T14:20:32;94826.00;;;25.82
69530;BMP180;56727;47.188;8.840;2023-10-19T14:23:01;94823.00;;;25.86
69530;BMP180;56727;47.188;8.840;2023-10-19T14:25:31;94821.60;;;25.88
69530;BMP180;56727;47.188;8.840;2023-10-19T14:27:57;94813.80;;;25.90
69530;BMP180;56727;47.188;8.840;2023-10-19T14:30:28;94812.80;;;25.90